createdAt,value
2022-10-13T00:00:14.277Z,100333.59
2022-10-13T00:02:40.919Z,100342.09
2022-10-13T00:05:08.238Z,100329.72
2022-10-13T00:07:34.965Z,100329.59
2022-10-13T00:10:01.680Z,100321.88
2022-10-13T00:12:28.306Z,100327.78
2022-10-13T00:14:54.931Z,100318.97
2022-10-13T00:17:21.589Z,100316.38
2022-10-13T00:19:48.256Z,100319.81
2022-10-13T00:22:14.944Z,100285.44
2022-10-13T00:24:41.624Z,100317.19
2022-10-13T00:27:08.245Z,100325.00
2022-10-13T00:29:35.109Z,100305.88
2022-10-13T00:32:01.718Z,100322.31
2022-10-13T00:34:28.397Z,100318.53
2022-10-13T00:36:54.994Z,100329.78
2022-10-13T00:39:21.656Z,100333.97
2022-10-13T00:41:48.264Z,100325.28
2022-10-13T00:44:52.418Z,100325.13
2022-10-13T00:47:20.024Z,100319.09
2022-10-13T00:49:46.749Z,100321.03
2022-10-13T00:52:14.633Z,100319.84
2022-10-13T00:54:41.442Z,100298.25
2022-10-13T00:57:08.893Z,100316.16
2022-10-13T00:59:36.289Z,100315.16
2022-10-13T01:02:03.335Z,100313.69
2022-10-13T01:04:34.814Z,100310.22
2022-10-13T01:07:01.586Z,100311.34
2022-10-13T01:09:35.118Z,100316.41
2022-10-13T01:12:17.025Z,100325.06
2022-10-13T01:14:48.841Z,100322.31
2022-10-13T01:17:27.387Z,100308.25
2022-10-13T01:20:19.109Z,100304.72
2022-10-13T01:23:00.998Z,100316.47
2022-10-13T01:26:12.334Z,100315.63
2022-10-13T01:29:06.941Z,100306.69
2022-10-13T01:32:29.764Z,100319.22
2022-10-13T01:35:18.667Z,100298.81
2022-10-13T01:37:58.091Z,100309.84
2022-10-13T01:40:29.189Z,100309.72
2022-10-13T01:43:02.218Z,100300.06
2022-10-13T01:45:32.490Z,100308.78
2022-10-13T01:47:59.917Z,100298.41
2022-10-13T01:50:26.903Z,100305.31
2022-10-13T01:52:53.848Z,100304.41
2022-10-13T01:55:20.705Z,100313.31
2022-10-13T01:57:47.446Z,100307.53
2022-10-13T02:00:19.758Z,100309.50
2022-10-13T02:03:11.110Z,100310.56
2022-10-13T02:06:04.872Z,100317.63
2022-10-13T02:08:38.485Z,100314.00
2022-10-13T02:11:10.734Z,100308.66
2022-10-13T02:13:43.017Z,100307.78
2022-10-13T02:16:10.386Z,100304.56
2022-10-13T02:18:37.323Z,100310.66
2022-10-13T02:21:04.729Z,100306.34
2022-10-13T02:23:31.809Z,100315.00
2022-10-13T02:25:59.873Z,100319.38
2022-10-13T02:28:27.226Z,100314.78
2022-10-13T02:30:54.051Z,100319.22
2022-10-13T02:33:20.747Z,100321.81
2022-10-13T02:35:47.368Z,100319.09
2022-10-13T02:38:13.980Z,100322.47
2022-10-13T02:40:40.638Z,100314.84
2022-10-13T02:43:07.665Z,100319.22
2022-10-13T02:45:34.558Z,100320.97
2022-10-13T02:48:01.264Z,100320.72
2022-10-13T02:50:27.998Z,100314.66
2022-10-13T02:52:54.644Z,100322.47
2022-10-13T02:55:21.394Z,100315.56
2022-10-13T02:57:48.049Z,100319.88
2022-10-13T03:00:15.335Z,100306.00
2022-10-13T03:02:42.634Z,100315.56
2022-10-13T03:05:09.837Z,100312.19
2022-10-13T03:07:36.669Z,100310.31
2022-10-13T03:10:05.160Z,100313.69
2022-10-13T03:12:31.997Z,100309.34
2022-10-13T03:14:58.686Z,100300.69
2022-10-13T03:17:25.890Z,100306.53
2022-10-13T03:19:52.575Z,100302.19
2022-10-13T03:22:19.701Z,100301.38
2022-10-13T03:24:46.545Z,100301.31
2022-10-13T03:27:13.196Z,100309.09
2022-10-13T03:29:40.734Z,100302.16
2022-10-13T03:32:07.608Z,100304.81
2022-10-13T03:34:34.723Z,100297.13
2022-10-13T03:37:01.422Z,100304.78
2022-10-13T03:39:28.196Z,100299.78
2022-10-13T03:41:54.886Z,100304.09
2022-10-13T03:44:21.548Z,100301.28
2022-10-13T03:46:48.263Z,100308.16
2022-10-13T03:49:14.984Z,100309.09
2022-10-13T03:51:41.709Z,100306.66
2022-10-13T03:54:11.777Z,100308.34
2022-10-13T03:56:38.455Z,100317.78
2022-10-13T03:59:05.493Z,100306.53
2022-10-13T04:01:32.944Z,100317.56
2022-10-13T04:04:02.306Z,100313.25
2022-10-13T04:06:29.639Z,100308.94
2022-10-13T04:08:56.854Z,100320.09
2022-10-13T04:11:23.745Z,100320.03
2022-10-13T04:13:50.496Z,100320.16
2022-10-13T04:16:28.499Z,100308.94
2022-10-13T04:19:00.547Z,100319.22
2022-10-13T04:21:28.484Z,100314.25
2022-10-13T04:23:57.351Z,100320.34
2022-10-13T04:26:25.989Z,100299.63
2022-10-13T04:28:53.980Z,100321.84
2022-10-13T04:31:24.655Z,100320.22
2022-10-13T04:33:51.695Z,100312.38
2022-10-13T04:36:19.229Z,100314.19
2022-10-13T04:38:46.330Z,100312.59
2022-10-13T04:41:14.509Z,100323.03
2022-10-13T04:43:41.277Z,100340.56
2022-10-13T04:46:14.464Z,100335.41
2022-10-13T04:48:41.774Z,100344.13
2022-10-13T04:51:11.350Z,100347.53
2022-10-13T04:53:38.575Z,100343.00
2022-10-13T04:56:08.657Z,100336.97
2022-10-13T04:58:36.237Z,100303.31
2022-10-13T05:01:04.859Z,100322.06
2022-10-13T05:03:31.900Z,100332.59
2022-10-13T05:05:58.619Z,100345.56
2022-10-13T05:08:25.432Z,100342.13
2022-10-13T05:11:00.661Z,100344.50
2022-10-13T05:13:28.478Z,100353.72
2022-10-13T05:15:55.784Z,100348.28
2022-10-13T05:18:23.038Z,100346.44
2022-10-13T05:20:49.952Z,100355.81
2022-10-13T05:23:17.076Z,100344.47
2022-10-13T05:25:43.823Z,100347.88
2022-10-13T05:28:10.703Z,100342.63
2022-10-13T05:30:37.363Z,100346.16
2022-10-13T05:33:04.037Z,100345.16
2022-10-13T05:35:30.788Z,100349.69
2022-10-13T05:37:58.170Z,100350.56
2022-10-13T05:40:24.978Z,100349.69
2022-10-13T05:42:52.849Z,100362.56
2022-10-13T05:45:20.462Z,100362.59
2022-10-13T05:47:47.309Z,100366.06
2022-10-13T05:50:14.323Z,100362.56
2022-10-13T05:52:41.916Z,100364.31
2022-10-13T05:55:10.024Z,100361.50
2022-10-13T05:57:41.252Z,100362.38
2022-10-13T06:00:16.134Z,100361.41
2022-10-13T06:02:55.592Z,100365.00
2022-10-13T06:05:24.611Z,100367.53
2022-10-13T06:07:51.513Z,100357.13
2022-10-13T06:10:18.761Z,100353.44
2022-10-13T06:12:45.549Z,100363.75
2022-10-13T06:15:12.488Z,100371.81
2022-10-13T06:17:39.597Z,100366.47
2022-10-13T06:20:07.635Z,100358.50
2022-10-13T06:22:35.460Z,100368.94
2022-10-13T06:25:03.596Z,100369.38
2022-10-13T06:27:31.199Z,100371.19
2022-10-13T06:29:58.394Z,100359.31
2022-10-13T06:32:25.385Z,100370.13
2022-10-13T06:34:52.351Z,100363.31
2022-10-13T06:37:22.213Z,100374.41
2022-10-13T06:39:52.948Z,100378.59
2022-10-13T06:42:19.965Z,100371.72
2022-10-13T06:44:46.829Z,100373.81
2022-10-13T06:47:13.962Z,100380.16
2022-10-13T06:49:40.807Z,100375.47
2022-10-13T06:52:07.647Z,100368.34
2022-10-13T06:54:34.603Z,100374.78
2022-10-13T06:57:01.338Z,100371.31
2022-10-13T06:59:28.090Z,100375.47
2022-10-13T07:01:54.707Z,100355.41
2022-10-13T07:04:21.505Z,100353.84
2022-10-13T07:06:48.277Z,100373.09
2022-10-13T07:09:15.277Z,100370.47
2022-10-13T07:11:45.691Z,100358.88
2022-10-13T07:14:13.575Z,100351.78
2022-10-13T07:16:40.709Z,100349.84
2022-10-13T07:19:07.630Z,100362.16
2022-10-13T07:21:34.441Z,100358.97
2022-10-13T07:24:03.327Z,100360.50
2022-10-13T07:26:30.342Z,100363.53
2022-10-13T07:28:58.273Z,100347.53
2022-10-13T07:31:25.373Z,100360.53
2022-10-13T07:33:52.435Z,100362.81
2022-10-13T07:36:19.721Z,100363.84
2022-10-13T07:38:46.903Z,100361.53
2022-10-13T07:41:14.371Z,100359.09
2022-10-13T07:43:41.182Z,100367.50
2022-10-13T07:46:08.019Z,100362.88
2022-10-13T07:48:35.046Z,100360.59
2022-10-13T07:51:11.450Z,100366.25
2022-10-13T07:53:38.829Z,100370.09
2022-10-13T07:56:07.946Z,100387.75
2022-10-13T07:58:37.514Z,100366.06
2022-10-13T08:01:05.080Z,100377.44
2022-10-13T08:03:33.010Z,100365.84
2022-10-13T08:06:00.862Z,100371.19
2022-10-13T08:08:27.839Z,100366.06
2022-10-13T08:13:21.918Z,100364.56
2022-10-13T08:15:48.643Z,100354.88
2022-10-13T08:18:21.683Z,100365.03
2022-10-13T08:20:48.384Z,100371.34
2022-10-13T08:23:15.086Z,100357.56
2022-10-13T08:25:43.396Z,100369.97
2022-10-13T08:28:23.683Z,100369.88
2022-10-13T08:30:51.998Z,100362.41
2022-10-13T08:33:19.116Z,100368.38
2022-10-13T08:35:45.758Z,100365.53
2022-10-13T08:38:15.271Z,100353.41
2022-10-13T08:40:47.209Z,100368.19
2022-10-13T08:43:16.920Z,100372.72
2022-10-13T08:45:43.537Z,100371.97
2022-10-13T08:48:19.915Z,100367.94
2022-10-13T08:50:49.580Z,100370.94
2022-10-13T08:53:32.611Z,100371.72
2022-10-13T08:56:00.184Z,100371.63
2022-10-13T08:58:33.038Z,100373.59
2022-10-13T09:01:09.027Z,100377.81
2022-10-13T09:03:45.830Z,100377.91
2022-10-13T09:06:29.046Z,100381.50
2022-10-13T09:09:00.230Z,100382.72
2022-10-13T09:11:33.888Z,100381.56
2022-10-13T09:14:04.136Z,100351.97
2022-10-13T09:16:34.014Z,100377.53
2022-10-13T09:19:30.660Z,100376.50
2022-10-13T09:22:16.191Z,100374.03
2022-10-13T09:24:43.375Z,100363.28
2022-10-13T09:27:16.309Z,100372.13
2022-10-13T09:29:44.278Z,100380.34
2022-10-13T09:32:15.927Z,100383.63
2022-10-13T09:34:43.189Z,100374.59
2022-10-13T09:37:25.008Z,100380.34
2022-10-13T09:40:13.347Z,100364.59
2022-10-13T09:42:40.690Z,100378.13
2022-10-13T09:45:17.018Z,100373.28
2022-10-13T09:47:51.192Z,100373.88
2022-10-13T09:50:20.281Z,100369.31
2022-10-13T09:52:47.751Z,100364.03
2022-10-13T09:55:35.055Z,100353.53
2022-10-13T09:58:15.324Z,100357.09
2022-10-13T10:00:42.233Z,100358.25
2022-10-13T10:03:20.342Z,100360.94
2022-10-13T10:06:06.154Z,100360.97
2022-10-13T10:09:02.781Z,100358.97
2022-10-13T10:11:38.276Z,100340.34
2022-10-13T10:14:25.843Z,100348.28
2022-10-13T10:17:13.316Z,100338.78
2022-10-13T10:20:01.390Z,100356.56
2022-10-13T10:22:49.904Z,100360.38
2022-10-13T10:25:51.775Z,100356.75
2022-10-13T10:28:18.674Z,100357.84
2022-10-13T10:30:56.281Z,100349.63
2022-10-13T10:33:36.708Z,100338.16
2022-10-13T10:36:19.052Z,100344.44
2022-10-13T10:38:48.835Z,100346.88
2022-10-13T10:41:27.036Z,100336.19
2022-10-13T10:44:25.571Z,100341.25
2022-10-13T10:46:55.166Z,100310.97
2022-10-13T10:49:34.686Z,100332.09
2022-10-13T10:52:05.800Z,100332.75
2022-10-13T10:54:49.551Z,100335.81
2022-10-13T10:57:36.552Z,100334.88
2022-10-13T11:00:07.092Z,100335.41
2022-10-13T11:02:52.160Z,100332.94
2022-10-13T11:05:19.212Z,100319.72
2022-10-13T11:07:46.599Z,100331.91
2022-10-13T11:10:13.559Z,100342.91
2022-10-13T11:12:52.887Z,100332.88
2022-10-13T11:15:24.436Z,100330.69
2022-10-13T11:17:51.474Z,100338.84
2022-10-13T11:20:18.154Z,100327.63
2022-10-13T11:23:09.489Z,100338.53
2022-10-13T11:25:42.267Z,100340.50
2022-10-13T11:28:21.059Z,100328.94
2022-10-13T11:30:56.032Z,100333.34
2022-10-13T11:33:41.291Z,100320.38
2022-10-13T11:36:59.289Z,100327.31
2022-10-13T11:39:27.449Z,100308.38
2022-10-13T11:42:12.506Z,100332.13
2022-10-13T11:44:57.498Z,100333.84
2022-10-13T11:47:38.914Z,100337.84
2022-10-13T11:50:17.431Z,100324.38
2022-10-13T11:52:50.856Z,100323.59
2022-10-13T11:55:23.730Z,100331.94
2022-10-13T11:57:50.377Z,100324.25
2022-10-13T12:00:18.796Z,100321.88
2022-10-13T12:02:50.917Z,100296.59
2022-10-13T12:05:22.519Z,100317.22
2022-10-13T12:07:49.725Z,100305.16
2022-10-13T12:10:32.354Z,100300.94
2022-10-13T12:12:59.276Z,100304.84
2022-10-13T12:15:35.600Z,100306.06
2022-10-13T12:18:03.601Z,100304.31
2022-10-13T12:20:32.697Z,100304.66
2022-10-13T12:22:59.321Z,100300.47
2022-10-13T12:25:28.817Z,100298.59
2022-10-13T12:27:57.947Z,100287.59
2022-10-13T12:30:28.378Z,100300.53
2022-10-13T12:32:58.294Z,100303.44
2022-10-13T12:35:31.464Z,100295.38
2022-10-13T12:38:01.663Z,100294.00
2022-10-13T12:40:29.327Z,100297.75
2022-10-13T12:42:56.244Z,100290.91
2022-10-13T12:45:24.731Z,100292.59
2022-10-13T12:47:53.022Z,100296.88
2022-10-13T12:50:25.901Z,100297.91
2022-10-13T12:52:54.229Z,100289.97
2022-10-13T12:55:22.678Z,100283.75
2022-10-13T12:57:50.389Z,100288.28
2022-10-13T13:00:20.436Z,100288.81
2022-10-13T13:02:55.166Z,100283.75
2022-10-13T13:05:34.215Z,100292.03
2022-10-13T13:08:02.240Z,100277.41
2022-10-13T13:10:29.465Z,100279.66
2022-10-13T13:12:56.554Z,100273.50
2022-10-13T13:15:25.847Z,100279.47
2022-10-13T13:17:58.202Z,100276.38
2022-10-13T13:20:28.005Z,100276.72
2022-10-13T13:22:55.767Z,100271.81
2022-10-13T13:25:22.762Z,100267.44
2022-10-13T13:27:49.656Z,100266.50
2022-10-13T13:30:18.622Z,100269.19
2022-10-13T13:32:45.261Z,100267.00
2022-10-13T13:35:12.059Z,100261.34
2022-10-13T13:37:48.930Z,100272.97
2022-10-13T13:40:20.970Z,100267.91
2022-10-13T13:42:47.694Z,100271.53
2022-10-13T13:45:15.832Z,100270.97
2022-10-13T13:47:42.602Z,100263.66
2022-10-13T13:50:16.175Z,100269.78
2022-10-13T13:52:42.794Z,100268.50
2022-10-13T13:55:09.464Z,100265.09
2022-10-13T13:57:36.111Z,100265.88
2022-10-13T14:00:03.180Z,100266.78
2022-10-13T14:02:29.931Z,100263.09
2022-10-13T14:04:56.678Z,100261.03
2022-10-13T14:07:23.564Z,100249.97
2022-10-13T14:09:50.401Z,100252.34
2022-10-13T14:12:17.156Z,100265.81
2022-10-13T14:14:43.926Z,100265.13
2022-10-13T14:17:10.657Z,100266.19
2022-10-13T14:19:37.368Z,100196.41
2022-10-13T14:22:08.583Z,100270.09
2022-10-13T14:24:36.166Z,100264.88
2022-10-13T14:27:02.836Z,100253.72
2022-10-13T14:29:29.503Z,100248.72
2022-10-13T14:31:56.156Z,100260.41
2022-10-13T14:34:22.844Z,100266.16
2022-10-13T14:36:49.514Z,100258.97
2022-10-13T14:39:16.266Z,100259.50
2022-10-13T14:41:42.969Z,100257.88
2022-10-13T14:44:11.849Z,100252.16
2022-10-13T14:46:38.472Z,100254.66
2022-10-13T14:49:06.104Z,100253.81
2022-10-13T14:51:32.934Z,100247.22
2022-10-13T14:54:01.743Z,100255.19
2022-10-13T14:56:32.699Z,100244.19
2022-10-13T14:59:01.080Z,100258.25
2022-10-13T15:01:27.980Z,100250.66
2022-10-13T15:03:54.905Z,100255.50
2022-10-13T15:06:23.772Z,100248.72
2022-10-13T15:08:51.173Z,100251.28
2022-10-13T15:11:19.317Z,100253.69
2022-10-13T15:13:46.280Z,100249.41
2022-10-13T15:16:18.778Z,100241.06
2022-10-13T15:18:45.663Z,100245.69
2022-10-13T15:21:12.746Z,100247.72
2022-10-13T15:23:39.880Z,100253.53
2022-10-13T15:26:07.154Z,100259.84
2022-10-13T15:28:45.195Z,100260.06
2022-10-13T15:31:12.846Z,100263.47
2022-10-13T15:33:42.702Z,100267.00
2022-10-13T15:36:09.362Z,100265.50
2022-10-13T15:38:36.031Z,100270.22
2022-10-13T15:41:04.352Z,100273.06
2022-10-13T15:43:31.252Z,100269.81
2022-10-13T15:46:05.076Z,100274.53
2022-10-13T15:48:32.654Z,100267.09
2022-10-13T15:50:59.690Z,100279.97
2022-10-13T15:53:26.294Z,100282.56
2022-10-13T15:55:53.123Z,100279.97
2022-10-13T15:58:19.779Z,100286.03
2022-10-13T16:00:46.579Z,100278.31
2022-10-13T16:03:17.541Z,100287.25
2022-10-13T16:05:45.404Z,100288.09
2022-10-13T16:08:12.630Z,100275.19
2022-10-13T16:10:41.244Z,100283.91
2022-10-13T16:13:08.658Z,100287.19
2022-10-13T16:15:35.333Z,100282.19
2022-10-13T16:18:02.234Z,100280.56
2022-10-13T16:20:34.283Z,100284.91
2022-10-13T16:23:01.406Z,100278.22
2022-10-13T16:25:28.048Z,100285.72
2022-10-13T16:27:54.773Z,100278.88
2022-10-13T16:30:21.398Z,100282.47
2022-10-13T16:32:48.126Z,100282.56
2022-10-13T16:35:15.955Z,100278.31
2022-10-13T16:37:42.658Z,100281.75
2022-10-13T16:40:09.735Z,100278.22
2022-10-13T16:42:36.337Z,100285.81
2022-10-13T16:45:03.003Z,100268.53
2022-10-13T16:47:29.636Z,100272.56
2022-10-13T16:49:56.328Z,100267.75
2022-10-13T16:52:22.956Z,100274.63
2022-10-13T16:54:49.725Z,100268.59
2022-10-13T16:57:17.355Z,100267.75
2022-10-13T16:59:43.946Z,100273.03
2022-10-13T17:02:14.564Z,100278.09
2022-10-13T17:04:41.759Z,100269.38
2022-10-13T17:07:08.513Z,100267.69
2022-10-13T17:09:35.233Z,100272.75
2022-10-13T17:12:02.874Z,100268.53
2022-10-13T17:14:29.588Z,100263.19
2022-10-13T17:16:58.030Z,100266.59
2022-10-13T17:19:25.493Z,100250.47
2022-10-13T17:21:52.101Z,100274.53
2022-10-13T17:24:18.908Z,100258.03
2022-10-13T17:26:45.643Z,100271.16
2022-10-13T17:29:12.392Z,100263.41
2022-10-13T17:31:39.009Z,100254.16
2022-10-13T17:34:06.403Z,100270.38
2022-10-13T17:36:34.391Z,100266.69
2022-10-13T17:39:08.683Z,100260.66
2022-10-13T17:41:35.744Z,100267.78
2022-10-13T17:44:02.480Z,100251.41
2022-10-13T17:46:39.475Z,100266.06
2022-10-13T17:49:11.479Z,100267.75
2022-10-13T17:51:38.846Z,100258.19
2022-10-13T17:54:06.388Z,100265.19
2022-10-13T17:56:35.128Z,100257.28
2022-10-13T17:59:02.402Z,100248.78
2022-10-13T18:01:51.287Z,100259.03
2022-10-13T18:04:19.230Z,100260.66
2022-10-13T18:09:31.736Z,100243.41
2022-10-13T18:11:58.977Z,100257.94
2022-10-13T18:14:25.756Z,100254.63
2022-10-13T18:16:53.081Z,100262.34
2022-10-13T18:19:20.688Z,100267.53
2022-10-13T18:21:47.966Z,100265.69
2022-10-13T18:24:14.898Z,100265.75
2022-10-13T18:26:41.934Z,100263.19
2022-10-13T18:29:11.168Z,100255.50
2022-10-13T18:31:38.776Z,100266.69
2022-10-13T18:34:10.914Z,100263.34
2022-10-13T18:36:44.096Z,100265.13
2022-10-13T18:39:13.553Z,100272.94
2022-10-13T18:41:44.753Z,100272.94
2022-10-13T18:44:16.102Z,100269.38
2022-10-13T18:46:43.454Z,100266.72
2022-10-13T18:49:15.011Z,100257.59
2022-10-13T18:51:41.963Z,100272.94
2022-10-13T18:54:09.194Z,100271.25
2022-10-13T18:56:38.772Z,100255.94
2022-10-13T18:59:06.835Z,100268.72
2022-10-13T19:01:35.296Z,100271.25
2022-10-13T19:04:02.027Z,100267.78
2022-10-13T19:06:32.132Z,100271.16
2022-10-13T19:09:01.438Z,100268.47
2022-10-13T19:11:29.143Z,100271.97
2022-10-13T19:13:56.530Z,100278.03
2022-10-13T19:16:25.090Z,100285.09
2022-10-13T19:18:52.485Z,100275.56
2022-10-13T19:21:20.376Z,100274.81
2022-10-13T19:23:47.156Z,100273.91
2022-10-13T19:26:20.282Z,100283.50
2022-10-13T19:28:47.661Z,100277.38
2022-10-13T19:31:20.306Z,100270.47
2022-10-13T19:33:47.688Z,100278.25
2022-10-13T19:36:34.050Z,100277.44
2022-10-13T19:39:02.573Z,100277.56
2022-10-13T19:41:31.371Z,100281.91
2022-10-13T19:43:59.113Z,100283.66
2022-10-13T19:46:25.841Z,100282.78
2022-10-13T19:48:53.885Z,100288.91
2022-10-13T19:51:20.605Z,100288.94
2022-10-13T19:53:47.320Z,100279.38
2022-10-13T19:56:25.728Z,100289.88
2022-10-13T19:58:54.130Z,100279.66
2022-10-13T20:01:21.202Z,100291.69
2022-10-13T20:03:48.285Z,100293.47
2022-10-13T20:06:15.716Z,100295.25
2022-10-13T20:08:42.776Z,100295.28
2022-10-13T20:11:11.577Z,100297.94
2022-10-13T20:13:38.447Z,100292.81
2022-10-13T20:16:10.814Z,100299.75
2022-10-13T20:18:38.016Z,100293.78
2022-10-13T20:21:06.026Z,100292.88
2022-10-13T20:23:32.977Z,100297.19
2022-10-13T20:26:08.878Z,100292.06
2022-10-13T20:28:41.919Z,100299.91
2022-10-13T20:31:10.725Z,100298.34
2022-10-13T20:33:37.508Z,100304.41
2022-10-13T20:36:12.779Z,100311.44
2022-10-13T20:38:39.448Z,100308.78
2022-10-13T20:41:07.860Z,100313.97
2022-10-13T20:43:35.109Z,100307.78
2022-10-13T20:46:03.059Z,100303.34
2022-10-13T20:48:57.844Z,100290.41
2022-10-13T20:51:22.376Z,100292.75
2022-10-13T20:53:49.088Z,100297.06
2022-10-13T20:56:21.357Z,100293.59
2022-10-13T20:58:48.932Z,100302.28
2022-10-13T21:01:16.371Z,100292.00
2022-10-13T21:03:43.083Z,100293.72
2022-10-13T21:06:12.956Z,100292.75
2022-10-13T21:08:40.342Z,100291.97
2022-10-13T21:11:09.435Z,100289.22
2022-10-13T21:13:37.188Z,100288.47
2022-10-13T21:16:09.550Z,100295.34
2022-10-13T21:18:36.395Z,100288.69
2022-10-13T21:21:05.100Z,100286.16
2022-10-13T21:23:31.836Z,100293.94
2022-10-13T21:26:01.658Z,100296.59
2022-10-13T21:28:28.812Z,100292.41
2022-10-13T21:31:02.252Z,100289.81
2022-10-13T21:33:29.190Z,100285.56
2022-10-13T21:35:55.851Z,100289.94
2022-10-13T21:38:22.674Z,100294.22
2022-10-13T21:40:53.091Z,100292.47
2022-10-13T21:43:20.617Z,100286.09
2022-10-13T21:45:47.437Z,100289.56
2022-10-13T21:48:14.130Z,100295.72
2022-10-13T21:50:40.991Z,100290.56
2022-10-13T21:53:07.840Z,100292.31
2022-10-13T21:55:34.457Z,100296.69
2022-10-13T21:58:05.387Z,100301.06
2022-10-13T22:00:32.544Z,100293.22
2022-10-13T22:02:59.306Z,100300.16
2022-10-13T22:05:26.009Z,100303.69
2022-10-13T22:07:53.666Z,100296.75
2022-10-13T22:10:20.335Z,100296.84
2022-10-13T22:12:46.949Z,100305.50
2022-10-13T22:15:13.589Z,100293.38
2022-10-13T22:17:40.181Z,100294.94
2022-10-13T22:20:07.136Z,100294.91
2022-10-13T22:22:33.732Z,100300.13
2022-10-13T22:25:00.518Z,100297.53
2022-10-13T22:27:27.133Z,100293.16
2022-10-13T22:29:53.861Z,100282.91
2022-10-13T22:32:20.456Z,100294.03
2022-10-13T22:34:47.053Z,100282.78
2022-10-13T22:37:13.674Z,100287.03
2022-10-13T22:39:40.352Z,100287.97
2022-10-13T22:42:07.009Z,100287.00
2022-10-13T22:44:33.646Z,100288.75
2022-10-13T22:47:00.267Z,100276.56
2022-10-13T22:49:26.964Z,100296.44
2022-10-13T22:51:53.576Z,100291.25
2022-10-13T22:54:20.216Z,100299.22
2022-10-13T22:56:46.843Z,100294.44
2022-10-13T22:59:16.600Z,100297.78
2022-10-13T23:01:43.237Z,100312.69
2022-10-13T23:04:09.865Z,100301.97
2022-10-13T23:06:36.518Z,100296.03
2022-10-13T23:09:08.185Z,100294.44
2022-10-13T23:11:35.086Z,100296.31
2022-10-13T23:14:02.397Z,100298.97
2022-10-13T23:16:29.399Z,100303.31
2022-10-13T23:18:56.074Z,100312.00
2022-10-13T23:21:24.530Z,100303.44
2022-10-13T23:23:56.042Z,100304.03
2022-10-13T23:26:23.116Z,100309.38
2022-10-13T23:28:49.899Z,100306.06
2022-10-13T23:31:17.589Z,100303.41
2022-10-13T23:33:44.717Z,100301.06
2022-10-13T23:36:16.355Z,100308.84
2022-10-13T23:38:43.250Z,100302.72
2022-10-13T23:41:12.446Z,100308.75
2022-10-13T23:43:39.463Z,100308.72
2022-10-13T23:46:06.184Z,100301.81
2022-10-13T23:48:33.019Z,100298.28
2022-10-13T23:51:05.759Z,100298.28
2022-10-13T23:53:35.512Z,100297.44
2022-10-13T23:56:06.445Z,100300.50
2022-10-13T23:58:33.593Z,100303.84
